createdAt,value
2023-05-25T00:12:42.879Z,10.64
2023-05-25T00:17:12.166Z,10.74
2023-05-25T00:21:41.891Z,10.84
2023-05-25T00:39:28.658Z,11.16
2023-05-25T00:43:57.872Z,11.21
2023-05-25T00:48:27.907Z,11.28
2023-05-25T01:10:09.241Z,11.59
2023-05-25T01:14:39.453Z,11.64
2023-05-25T01:41:07.499Z,11.90
2023-05-25T01:45:36.848Z,11.92
2023-05-25T01:50:28.562Z,11.90
2023-05-25T02:08:37.554Z,12.03
2023-05-25T02:13:07.043Z,12.03
2023-05-25T02:17:37.479Z,12.03
2023-05-25T02:34:53.776Z,12.18
2023-05-25T02:39:19.073Z,12.21
2023-05-25T02:43:37.386Z,12.23
2023-05-25T03:00:47.954Z,12.39
2023-05-25T03:05:17.169Z,12.42
2023-05-25T03:09:34.989Z,12.44
2023-05-25T03:35:09.284Z,13.56
2023-05-25T03:39:12.550Z,13.93
2023-05-25T03:43:42.810Z,14.14
2023-05-25T03:48:02.320Z,14.03
2023-05-25T04:14:37.499Z,13.37
2023-05-25T04:19:06.993Z,13.41
2023-05-25T04:23:24.556Z,13.50
2023-05-25T04:45:53.813Z,14.43
2023-05-25T04:50:11.977Z,14.85
2023-05-25T04:54:14.383Z,15.25
2023-05-25T04:58:45.694Z,15.59
2023-05-25T05:19:18.097Z,16.87
2023-05-25T05:23:47.338Z,17.13
2023-05-25T05:28:17.861Z,17.43
2023-05-25T05:53:57.414Z,18.53
2023-05-25T05:58:22.685Z,18.62
2023-05-25T06:02:41.969Z,18.82
2023-05-25T06:07:09.206Z,18.87
2023-05-25T06:11:22.489Z,18.91
2023-05-25T06:15:57.624Z,19.06
2023-05-25T06:23:58.008Z,19.53
2023-05-25T06:28:10.256Z,19.50
2023-05-25T06:32:27.985Z,19.75
2023-05-25T06:36:57.696Z,19.74
2023-05-25T06:41:12.554Z,19.89
2023-05-25T06:49:25.845Z,20.39
2023-05-25T06:53:16.197Z,20.47
2023-05-25T06:57:12.319Z,20.59
2023-05-25T07:00:54.207Z,20.86
2023-05-25T07:05:16.237Z,20.81
2023-05-25T07:09:31.239Z,20.97
2023-05-25T07:13:11.374Z,21.29
2023-05-25T07:16:59.909Z,21.55
2023-05-25T07:21:18.787Z,21.77
2023-05-25T08:07:19.268Z,22.67
2023-05-25T08:10:48.971Z,22.77
2023-05-25T08:15:18.584Z,23.04
2023-05-25T08:19:38.591Z,22.99
2023-05-25T08:23:40.937Z,22.78
2023-05-25T08:27:50.158Z,22.86
2023-05-25T08:30:24.260Z,23.03
2023-05-25T08:34:12.482Z,23.17
2023-05-25T08:38:10.401Z,23.35
2023-05-25T08:41:36.173Z,23.52
2023-05-25T08:45:35.555Z,23.65
2023-05-25T08:49:02.256Z,23.60
2023-05-25T08:52:36.837Z,23.30
2023-05-25T08:55:56.732Z,23.24
2023-05-25T09:00:24.793Z,23.48
2023-05-25T09:04:44.952Z,23.35
2023-05-25T09:09:07.597Z,23.21
2023-05-25T09:12:27.936Z,22.78
2023-05-25T09:16:09.865Z,22.72
2023-05-25T09:20:05.417Z,23.08
2023-05-25T09:28:55.516Z,23.37
2023-05-25T09:32:59.742Z,23.58
2023-05-25T09:36:57.910Z,23.50
2023-05-25T09:41:11.925Z,23.23
2023-05-25T10:11:05.923Z,24.45
2023-05-25T10:15:26.025Z,23.96
2023-05-25T10:19:55.459Z,23.32
2023-05-25T10:24:13.232Z,23.46
2023-05-25T10:28:33.871Z,23.57
2023-05-25T10:32:40.500Z,23.38
2023-05-25T10:49:49.142Z,23.61
2023-05-25T10:54:04.310Z,23.68
2023-05-25T10:58:02.575Z,23.43
2023-05-25T11:02:06.994Z,23.12
2023-05-25T11:06:39.843Z,22.93
2023-05-25T11:10:34.923Z,22.80
2023-05-25T11:31:02.224Z,22.67
2023-05-25T11:35:11.013Z,21.90
2023-05-25T11:39:31.962Z,21.60
2023-05-25T11:43:51.934Z,21.40
2023-05-25T11:47:44.661Z,21.50
2023-05-25T11:50:34.139Z,21.58
2023-05-25T11:53:50.527Z,21.49
2023-05-25T11:56:59.935Z,21.47
2023-05-25T12:01:19.109Z,21.65
2023-05-25T12:05:11.619Z,21.97
2023-05-25T12:09:07.312Z,21.71
2023-05-25T12:12:57.555Z,21.49
2023-05-25T12:16:47.269Z,21.30
2023-05-25T12:20:58.605Z,21.12
2023-05-25T12:24:48.706Z,21.04
2023-05-25T12:29:13.350Z,21.04
2023-05-25T12:33:05.387Z,20.93
2023-05-25T12:36:39.854Z,20.87
2023-05-25T12:41:19.586Z,20.93
2023-05-25T12:45:38.812Z,20.96
2023-05-25T13:42:11.309Z,21.40
2023-05-25T13:51:07.142Z,21.81
2023-05-25T13:55:13.768Z,21.74
2023-05-25T14:12:05.554Z,20.72
2023-05-25T14:16:34.924Z,20.27
2023-05-25T14:20:56.405Z,19.99
2023-05-25T14:25:15.349Z,19.96
2023-05-25T14:29:21.785Z,19.78
2023-05-25T14:33:55.740Z,19.69
2023-05-25T14:55:06.214Z,20.75
2023-05-25T14:59:35.961Z,20.63
2023-05-25T15:04:05.993Z,20.61
2023-05-25T15:08:35.739Z,21.06
2023-05-25T15:12:53.032Z,21.53
2023-05-25T15:34:30.263Z,22.56
2023-05-25T15:38:49.827Z,22.07
2023-05-25T15:43:19.118Z,21.74
2023-05-25T15:47:50.263Z,21.69
2023-05-25T15:56:20.053Z,21.91
2023-05-25T16:00:50.749Z,21.72
2023-05-25T16:09:30.598Z,21.18
2023-05-25T16:26:34.604Z,20.36
2023-05-25T16:31:03.537Z,20.01
2023-05-25T16:35:33.338Z,19.73
2023-05-25T16:39:51.329Z,19.59
2023-05-25T17:08:15.102Z,18.49
2023-05-25T17:12:33.281Z,18.41
2023-05-25T17:16:51.826Z,18.27
2023-05-25T17:21:17.018Z,18.05
2023-05-25T17:43:09.950Z,17.28
2023-05-25T17:47:32.195Z,17.11
2023-05-25T17:52:01.586Z,16.97
2023-05-25T17:56:08.591Z,16.84
2023-05-25T18:00:27.207Z,16.71
2023-05-25T18:04:47.772Z,16.62
2023-05-25T18:09:17.885Z,16.52
2023-05-25T18:13:24.925Z,16.41
2023-05-25T18:30:46.542Z,16.01
2023-05-25T18:35:00.465Z,15.86
2023-05-25T18:39:32.826Z,15.72
2023-05-25T18:43:49.117Z,15.60
2023-05-25T18:52:17.057Z,15.48
2023-05-25T18:56:46.743Z,15.35
2023-05-25T19:00:55.725Z,15.20
2023-05-25T19:05:18.914Z,15.03
2023-05-25T19:09:49.098Z,14.87
2023-05-25T19:30:55.892Z,14.29
2023-05-25T19:35:26.578Z,14.13
2023-05-25T19:39:56.362Z,13.98
2023-05-25T19:44:18.967Z,13.84
2023-05-25T19:48:17.793Z,13.71
2023-05-25T19:52:44.555Z,13.59
2023-05-25T20:09:59.037Z,13.13
2023-05-25T20:14:31.076Z,12.97
2023-05-25T20:18:40.644Z,12.86
2023-05-25T20:44:57.126Z,12.36
2023-05-25T20:49:19.316Z,12.29
2023-05-25T20:53:49.361Z,12.23
2023-05-25T20:58:18.345Z,12.21
2023-05-25T21:19:43.084Z,12.00
2023-05-25T21:24:12.248Z,11.93
2023-05-25T21:45:59.676Z,11.60
2023-05-25T21:50:28.438Z,11.50
2023-05-25T21:54:57.298Z,11.42
2023-05-25T21:59:26.118Z,11.34
2023-05-25T22:03:54.994Z,11.26
2023-05-25T22:08:24.062Z,11.19
2023-05-25T22:36:48.691Z,10.78
2023-05-25T22:41:17.980Z,10.68
2023-05-25T22:45:28.258Z,10.59
2023-05-25T23:08:16.038Z,10.31
2023-05-25T23:12:46.373Z,10.20
2023-05-25T23:17:03.524Z,10.09
2023-05-25T23:21:33.478Z,10.00
2023-05-25T23:33:06.295Z,9.96
2023-05-25T23:37:35.789Z,9.79
2023-05-25T23:42:04.644Z,9.65
2023-05-25T23:46:36.251Z,9.52
2023-05-25T23:59:24.475Z,9.31
